createdAt,value
2023-04-11T00:01:55.990Z,86.30
2023-04-11T00:05:58.941Z,86.30
2023-04-11T00:10:00.915Z,86.30
2023-04-11T00:14:05.445Z,86.00
2023-04-11T00:18:07.976Z,86.10
2023-04-11T00:22:11.458Z,86.40
2023-04-11T00:26:13.389Z,86.50
2023-04-11T00:30:15.502Z,86.60
2023-04-11T00:34:18.819Z,86.70
2023-04-11T00:38:21.210Z,86.80
2023-04-11T00:42:23.398Z,87.50
2023-04-11T00:46:26.442Z,87.80
2023-04-11T00:50:28.860Z,87.60
2023-04-11T00:54:31.539Z,87.70
2023-04-11T00:58:34.563Z,88.80
2023-04-11T01:02:37.943Z,88.80
2023-04-11T01:06:39.939Z,89.00
2023-04-11T01:10:42.338Z,88.70
2023-04-11T01:14:47.768Z,88.30
2023-04-11T01:18:49.833Z,89.30
2023-04-11T01:22:52.537Z,90.70
2023-04-11T01:26:54.892Z,90.60
2023-04-11T01:30:57.778Z,90.80
2023-04-11T01:35:00.154Z,91.00
2023-04-11T01:39:02.080Z,90.80
2023-04-11T01:43:04.530Z,90.70
2023-04-11T01:47:06.494Z,90.70
2023-04-11T01:51:08.519Z,90.80
2023-04-11T01:55:10.812Z,90.80
2023-04-11T01:59:12.734Z,91.00
2023-04-11T02:03:14.690Z,91.10
2023-04-11T02:07:16.802Z,91.60
2023-04-11T02:11:18.950Z,91.80
2023-04-11T02:15:24.153Z,92.50
2023-04-11T02:19:26.322Z,93.00
2023-04-11T02:23:28.743Z,93.10
2023-04-11T02:27:31.436Z,92.90
2023-04-11T02:31:33.328Z,93.50
2023-04-11T02:35:35.525Z,93.90
2023-04-11T02:39:38.341Z,94.00
2023-04-11T02:43:40.491Z,94.20
2023-04-11T02:47:42.804Z,94.40
2023-04-11T02:51:45.905Z,94.20
2023-04-11T02:55:48.194Z,94.40
2023-04-11T02:59:51.080Z,94.60
2023-04-11T03:04:00.228Z,94.80
2023-04-11T03:08:12.386Z,94.90
2023-04-11T03:12:20.236Z,94.70
2023-04-11T03:16:29.660Z,94.90
2023-04-11T03:20:32.241Z,95.10
2023-04-11T03:24:34.648Z,95.40
2023-04-11T03:28:36.631Z,95.70
2023-04-11T03:32:38.720Z,96.00
2023-04-11T03:36:40.814Z,96.40
2023-04-11T03:40:42.751Z,96.80
2023-04-11T03:44:48.714Z,97.00
2023-04-11T03:48:50.735Z,97.90
2023-04-11T03:52:54.632Z,97.70
2023-04-11T03:56:57.177Z,97.60
2023-04-11T04:01:00.630Z,97.50
2023-04-11T04:05:03.191Z,97.80
2023-04-11T04:09:09.591Z,98.10
2023-04-11T04:13:24.493Z,98.40
2023-04-11T04:17:35.386Z,98.90
2023-04-11T04:21:43.265Z,99.30
2023-04-11T04:25:51.057Z,99.40
2023-04-11T04:30:01.420Z,99.90
2023-04-11T04:34:21.670Z,99.90
2023-04-11T04:38:26.014Z,99.90
2023-04-11T04:42:30.263Z,99.90
2023-04-11T04:46:37.939Z,99.90
2023-04-11T04:50:41.466Z,99.60
2023-04-11T04:54:43.534Z,99.70
2023-04-11T04:58:47.146Z,99.70
2023-04-11T05:02:50.364Z,99.40
2023-04-11T05:06:52.720Z,99.20
2023-04-11T05:10:55.405Z,99.10
2023-04-11T05:14:57.773Z,98.80
2023-04-11T05:19:02.066Z,98.60
2023-04-11T05:23:05.905Z,99.10
2023-04-11T05:27:07.791Z,98.30
2023-04-11T05:31:11.704Z,99.10
2023-04-11T05:35:14.109Z,99.60
2023-04-11T05:39:34.338Z,99.70
2023-04-11T05:43:36.631Z,99.20
2023-04-11T05:47:38.826Z,99.70
2023-04-11T05:51:41.061Z,99.90
2023-04-11T05:55:43.014Z,99.90
2023-04-11T05:59:44.762Z,99.90
2023-04-11T06:03:47.135Z,99.90
2023-04-11T06:07:49.276Z,99.90
2023-04-11T06:11:51.235Z,99.90
2023-04-11T06:15:53.400Z,99.90
2023-04-11T06:19:55.481Z,99.90
2023-04-11T06:23:57.632Z,99.90
2023-04-11T06:27:59.808Z,99.90
2023-04-11T06:32:01.752Z,99.90
2023-04-11T06:36:05.984Z,99.90
2023-04-11T06:40:09.020Z,99.90
2023-04-11T06:44:10.942Z,99.90
2023-04-11T06:48:13.072Z,99.90
2023-04-11T06:52:15.593Z,99.90
2023-04-11T06:56:17.462Z,99.90
2023-04-11T07:00:19.897Z,99.80
2023-04-11T07:04:22.167Z,99.20
2023-04-11T07:08:24.264Z,98.90
2023-04-11T07:12:26.396Z,98.40
2023-04-11T07:16:28.934Z,97.50
2023-04-11T07:20:34.465Z,98.00
2023-04-11T07:24:37.099Z,98.20
2023-04-11T07:28:40.572Z,97.30
2023-04-11T07:32:42.610Z,97.60
2023-04-11T07:36:44.704Z,97.30
2023-04-11T07:40:46.536Z,97.60
2023-04-11T07:44:48.307Z,99.00
2023-04-11T07:48:50.236Z,98.30
2023-04-11T07:52:52.229Z,98.30
2023-04-11T07:56:54.387Z,98.50
2023-04-11T08:00:56.249Z,98.10
2023-04-11T08:04:58.400Z,98.60
2023-04-11T08:09:00.973Z,98.60
2023-04-11T08:13:03.147Z,98.30
2023-04-11T08:17:12.099Z,98.00
2023-04-11T08:21:19.796Z,99.00
2023-04-11T08:25:24.994Z,98.30
2023-04-11T08:29:26.924Z,98.20
2023-04-11T08:33:28.871Z,97.90
2023-04-11T08:37:31.038Z,98.10
2023-04-11T08:41:34.816Z,97.40
2023-04-11T08:45:36.822Z,97.10
2023-04-11T08:49:38.768Z,97.10
2023-04-11T08:53:41.957Z,96.90
2023-04-11T08:57:44.077Z,96.80
2023-04-11T09:01:46.325Z,96.30
2023-04-11T09:05:48.538Z,95.90
2023-04-11T09:09:50.647Z,95.30
2023-04-11T09:14:11.701Z,94.60
2023-04-11T09:18:37.497Z,94.60
2023-04-11T09:22:40.508Z,94.90
2023-04-11T09:26:44.023Z,95.10
2023-04-11T09:30:52.233Z,94.60
2023-04-11T09:35:10.385Z,95.30
2023-04-11T09:39:19.536Z,94.30
2023-04-11T09:43:21.472Z,94.90
2023-04-11T09:47:23.663Z,93.20
2023-04-11T09:55:32.561Z,94.00
2023-04-11T09:59:38.941Z,92.90
2023-04-11T10:03:41.778Z,93.10
2023-04-11T10:08:03.864Z,93.10
2023-04-11T10:12:06.050Z,94.00
2023-04-11T10:16:18.737Z,93.40
2023-04-11T10:20:36.185Z,92.00
2023-04-11T10:24:38.894Z,92.60
2023-04-11T10:28:40.893Z,91.90
2023-04-11T10:33:11.786Z,91.00
2023-04-11T10:37:13.533Z,91.70
2023-04-11T10:41:19.016Z,91.10
2023-04-11T10:45:27.853Z,88.50
2023-04-11T10:49:34.168Z,90.20
2023-04-11T10:53:37.430Z,90.00
2023-04-11T10:58:08.323Z,88.30
2023-04-11T11:02:10.808Z,88.40
2023-04-11T11:06:14.469Z,87.60
2023-04-11T11:10:34.348Z,87.30
2023-04-11T11:14:37.485Z,85.30
2023-04-11T11:18:39.894Z,86.20
2023-04-11T11:22:41.724Z,85.10
2023-04-11T11:26:44.346Z,85.20
2023-04-11T11:30:56.778Z,86.10
2023-04-11T11:34:58.959Z,85.80
2023-04-11T11:39:01.162Z,84.90
2023-04-11T11:43:03.120Z,84.70
2023-04-11T11:47:12.305Z,84.50
2023-04-11T11:51:14.570Z,83.50
2023-04-11T11:55:19.526Z,83.50
2023-04-11T11:59:28.168Z,83.80
2023-04-11T12:03:30.264Z,84.50
2023-04-11T12:07:36.935Z,86.00
2023-04-11T12:11:39.903Z,86.80
2023-04-11T12:15:45.937Z,84.50
2023-04-11T12:19:47.940Z,81.10
2023-04-11T12:23:49.993Z,85.00
2023-04-11T12:27:52.010Z,83.60
2023-04-11T12:31:54.138Z,83.90
2023-04-11T12:35:56.176Z,85.80
2023-04-11T12:39:57.951Z,93.90
2023-04-11T12:44:02.192Z,95.10
2023-04-11T12:48:04.456Z,95.00
2023-04-11T12:52:09.320Z,94.00
2023-04-11T12:56:11.294Z,93.20
2023-04-11T13:00:13.849Z,92.20
2023-04-11T13:04:15.995Z,92.00
2023-04-11T13:08:17.931Z,92.20
2023-04-11T13:12:19.948Z,88.70
2023-04-11T13:16:21.992Z,84.60
2023-04-11T13:20:23.811Z,85.50
2023-04-11T13:24:26.793Z,83.20
2023-04-11T13:28:29.785Z,82.00
2023-04-11T13:32:32.255Z,81.10
2023-04-11T13:36:34.279Z,81.40
2023-04-11T13:40:38.202Z,81.60
2023-04-11T13:44:39.959Z,80.40
2023-04-11T13:48:41.877Z,80.50
2023-04-11T13:52:43.988Z,80.30
2023-04-11T13:56:46.029Z,80.20
2023-04-11T14:00:50.352Z,79.90
2023-04-11T14:04:53.403Z,78.70
2023-04-11T14:08:55.529Z,79.80
2023-04-11T14:12:57.540Z,79.40
2023-04-11T14:16:59.725Z,78.30
2023-04-11T14:21:01.979Z,77.40
2023-04-11T14:25:05.490Z,77.60
2023-04-11T14:29:07.434Z,75.30
2023-04-11T14:33:09.550Z,75.70
2023-04-11T14:37:11.783Z,73.10
2023-04-11T14:41:13.706Z,74.40
2023-04-11T14:45:15.735Z,75.50
2023-04-11T14:49:18.002Z,75.30
2023-04-11T14:53:20.064Z,72.90
2023-04-11T14:57:22.862Z,74.80
2023-04-11T15:01:25.143Z,73.80
2023-04-11T15:05:28.196Z,74.20
2023-04-11T15:09:30.362Z,73.10
2023-04-11T15:13:32.990Z,74.00
2023-04-11T15:17:46.111Z,73.60
2023-04-11T15:21:48.577Z,72.80
2023-04-11T15:26:03.778Z,72.70
2023-04-11T15:30:06.509Z,73.00
2023-04-11T15:34:08.530Z,72.00
2023-04-11T15:38:11.751Z,68.80
2023-04-11T15:42:13.792Z,68.20
2023-04-11T15:46:16.283Z,68.20
2023-04-11T15:50:18.452Z,66.40
2023-04-11T15:54:20.692Z,67.80
2023-04-11T15:58:22.577Z,66.60
2023-04-11T16:02:24.633Z,67.60
2023-04-11T16:06:27.394Z,67.40
2023-04-11T16:10:30.404Z,67.80
2023-04-11T16:14:32.461Z,69.40
2023-04-11T16:18:34.362Z,68.90
2023-04-11T16:22:36.925Z,69.20
2023-04-11T16:26:38.814Z,69.70
2023-04-11T16:30:40.792Z,69.70
2023-04-11T16:34:42.605Z,69.80
2023-04-11T16:38:44.618Z,70.10
2023-04-11T16:42:46.566Z,68.90
2023-04-11T16:46:48.548Z,66.80
2023-04-11T16:50:50.703Z,68.40
2023-04-11T16:54:52.810Z,68.90
2023-04-11T16:58:54.876Z,70.00
2023-04-11T17:02:57.268Z,68.50
2023-04-11T17:06:59.263Z,68.00
2023-04-11T17:11:09.242Z,69.90
2023-04-11T17:15:11.708Z,70.70
2023-04-11T17:19:13.880Z,69.70
2023-04-11T17:23:15.910Z,70.80
2023-04-11T17:27:18.002Z,68.90
2023-04-11T17:31:20.608Z,70.30
2023-04-11T17:35:22.662Z,69.20
2023-04-11T17:39:24.612Z,70.70
2023-04-11T17:43:26.551Z,71.30
2023-04-11T17:47:28.594Z,72.50
2023-04-11T17:51:31.538Z,73.00
2023-04-11T17:55:33.608Z,74.50
2023-04-11T17:59:35.446Z,73.00
2023-04-11T18:03:38.522Z,73.70
2023-04-11T18:07:41.910Z,73.90
2023-04-11T18:11:44.193Z,74.50
2023-04-11T18:15:46.315Z,74.60
2023-04-11T18:19:48.974Z,75.00
2023-04-11T18:23:51.115Z,76.00
2023-04-11T18:27:53.290Z,75.60
2023-04-11T18:31:56.230Z,76.50
2023-04-11T18:35:58.192Z,76.40
2023-04-11T18:40:01.316Z,75.70
2023-04-11T18:44:05.189Z,76.90
2023-04-11T18:48:07.985Z,77.70
2023-04-11T18:52:11.413Z,77.30
2023-04-11T18:56:14.160Z,77.80
2023-04-11T19:00:19.237Z,78.20
2023-04-11T19:04:23.079Z,78.90
2023-04-11T19:08:25.287Z,79.40
2023-04-11T19:12:27.329Z,79.30
2023-04-11T19:16:30.635Z,80.10
2023-04-11T19:20:32.722Z,80.40
2023-04-11T19:24:34.834Z,81.40
2023-04-11T19:28:36.750Z,82.10
2023-04-11T19:32:41.025Z,82.10
2023-04-11T19:36:43.307Z,82.30
2023-04-11T19:40:45.339Z,82.60
2023-04-11T19:44:48.346Z,83.10
2023-04-11T19:48:51.491Z,83.50
2023-04-11T19:52:58.322Z,83.40
2023-04-11T19:57:00.670Z,83.90
2023-04-11T20:01:03.144Z,84.00
2023-04-11T20:05:06.210Z,84.20
2023-04-11T20:09:08.140Z,84.60
2023-04-11T20:13:10.192Z,84.60
2023-04-11T20:17:12.252Z,84.40
2023-04-11T20:21:15.079Z,84.30
2023-04-11T20:25:17.316Z,83.80
2023-04-11T20:29:21.205Z,84.30
2023-04-11T20:33:23.228Z,84.40
2023-04-11T20:37:25.166Z,85.00
2023-04-11T20:41:27.377Z,84.80
2023-04-11T20:45:30.690Z,85.40
2023-04-11T20:49:32.801Z,85.20
2023-04-11T20:53:35.642Z,85.10
2023-04-11T20:57:37.520Z,85.30
2023-04-11T21:01:40.498Z,85.20
2023-04-11T21:05:46.650Z,86.20
2023-04-11T21:09:49.513Z,86.40
2023-04-11T21:13:51.630Z,87.20
2023-04-11T21:17:53.681Z,86.90
2023-04-11T21:21:57.281Z,86.10
2023-04-11T21:25:59.212Z,86.30
2023-04-11T21:30:01.118Z,86.20
2023-04-11T21:34:03.166Z,87.40
2023-04-11T21:38:05.002Z,87.20
2023-04-11T21:42:06.878Z,87.10
2023-04-11T21:46:08.908Z,87.30
2023-04-11T21:50:11.571Z,86.80
2023-04-11T21:54:13.707Z,87.00
2023-04-11T21:58:25.845Z,87.00
2023-04-11T22:02:30.878Z,87.70
2023-04-11T22:06:32.957Z,87.30
2023-04-11T22:10:47.339Z,86.80
2023-04-11T22:14:52.774Z,86.60
2023-04-11T22:18:54.807Z,87.10
2023-04-11T22:22:57.656Z,87.50
2023-04-11T22:27:04.018Z,87.70
2023-04-11T22:31:06.233Z,87.80
2023-04-11T22:35:09.332Z,87.60
2023-04-11T22:39:11.192Z,87.60
2023-04-11T22:43:13.057Z,87.50
2023-04-11T22:47:16.522Z,87.50
2023-04-11T22:51:19.021Z,87.80
2023-04-11T22:55:21.175Z,87.80
2023-04-11T22:59:26.378Z,87.80
2023-04-11T23:03:28.465Z,87.10
2023-04-11T23:07:32.824Z,87.30
2023-04-11T23:11:34.914Z,88.00
2023-04-11T23:15:37.445Z,88.40
2023-04-11T23:19:39.375Z,88.40
2023-04-11T23:23:41.422Z,88.90
2023-04-11T23:27:44.570Z,89.30
2023-04-11T23:31:46.532Z,89.30
2023-04-11T23:35:48.737Z,89.40
2023-04-11T23:39:50.509Z,89.20
2023-04-11T23:43:52.265Z,89.30
2023-04-11T23:47:54.138Z,90.00
2023-04-11T23:51:56.541Z,90.20
2023-04-11T23:55:58.530Z,90.30
